This is the latest recevied weather packets stored in our database for station/object KE2HEH. If no packets are shown the sender has not sent any weather packets the latest 10 day(s).
| Time | Temp. | Humidity | Pressure | Rain* | Wind** | Luminosity | Snow |
|---|---|---|---|---|---|---|---|
| 1778274540 | 11.67° C | 80% | 1012.3 hPa | 0 mm | - | 253 W/m² | - |
| 1778274236 | 12.22° C | 80% | 1012.4 hPa | 0 mm | - | 126 W/m² | - |
| 1778273932 | 12.22° C | 80% | 1012.5 hPa | 0 mm | - | 117 W/m² | - |
| 1778273629 | 11.67° C | 80% | 1012.5 hPa | 0 mm | - | 55 W/m² | - |
| 1778273325 | 11.67° C | 80% | 1012.3 hPa | 0 mm | - | 52 W/m² | - |
| 1778273023 | 12.22° C | 80% | 1012.7 hPa | 0 mm | - | 40 W/m² | - |
| 1778272718 | 12.22° C | 80% | 1012.4 hPa | 0 mm | - | 59 W/m² | - |
| 1778272415 | 12.22° C | 79% | 1012.3 hPa | 0 mm | - | 93 W/m² | - |
| 1778272110 | 12.22° C | 79% | 1012.3 hPa | 0 mm | - | 89 W/m² | - |
| 1778271808 | 12.22° C | 79% | 1012.4 hPa | 0 mm | - | 97 W/m² | - |
| 1778271505 | 12.22° C | 79% | 1012.4 hPa | 0 mm | - | 138 W/m² | - |
| 1778271202 | 12.22° C | 79% | 1012.4 hPa | 0 mm | - | 121 W/m² | - |
| 1778270898 | 12.22° C | 79% | 1012.2 hPa | 0 mm | - | 92 W/m² | - |
| 1778270595 | 12.22° C | 78% | 1012.2 hPa | 0 mm | - | 92 W/m² | - |
| 1778270291 | 12.78° C | 78% | 1012.2 hPa | 0 mm | - | 133 W/m² | - |
| 1778269988 | 12.78° C | 77% | 1012.1 hPa | 0 mm | - | 156 W/m² | - |
| 1778269684 | 13.33° C | 76% | 1012.1 hPa | 0 mm | - | 179 W/m² | - |
| 1778269381 | 13.33° C | 76% | 1012.2 hPa | 0 mm | - | 523 W/m² | - |
| 1778269078 | 13.33° C | 76% | 1012.3 hPa | 0 mm | - | 540 W/m² | - |
| 1778268775 | 13.89° C | 72% | 1012.5 hPa | 0 mm | - | 618 W/m² | - |
| 1778268471 | 14.44° C | 65% | 1012.4 hPa | 0 mm | - | 269 W/m² | - |
| 1778268168 | 12.78° C | 68% | 1012.5 hPa | 0 mm | - | 186 W/m² | - |
| 1778267866 | 12.22° C | 75% | 1012.6 hPa | 0 mm | - | 179 W/m² | - |
| 1778267563 | 12.78° C | 76% | 1012.4 hPa | 0 mm | - | 104 W/m² | - |
| 1778267260 | 13.33° C | 74% | 1012.7 hPa | 0 mm | - | 109 W/m² | - |
* Rain latest hour (hover to see other rain measurements)
** Current wind speed in m/s (hover to see current wind gust speed)